Latest Weather Observations for Holmes Reef

IDQ60801

Issued at 2:32 pm EST Thursday 28 July 2016 (issued every 30 minutes, with the page automatically refreshed every 10 minutes)

About weather observations | Map of weather stations | Latest weather observations for QLD | Other Formats
Station Details ID: 200732 Name: HOLMES REEF Lat: -16.47 Lon: 147.87 Height: 1.9 m
Data from the previous 72 hours. | See also: Recent months at Holmes Reef
Date/Time
EST
Temp
°C
App
Temp
°C
Dew
Point
°C
Rel
Hum
%
Delta-T
°C
Wind Press
QNH
hPa
Press
MSL
hPa
Rain since
9am
mm
Dir  Spd
km/h
Gust
km/h
Spd
kts
Gust
kts
28/02:30pm 24.5 - - - - SSE 50 57 27 31 1014.8 - -
28/02:15pm 24.6 - - - - SSE 50 56 27 30 1014.9 1014.6 -
28/02:00pm 24.5 - - - - SSE 50 57 27 31 1015.2 - -
28/01:30pm 24.7 - - - - SSE 52 59 28 32 1015.4 - -
28/01:15pm 24.7 - - - - SSE 50 - 27 - - 1015.2 -
28/01:00pm 24.6 - - - - SSE 50 59 27 32 1015.6 - -
28/12:30pm 24.8 - - - - SSE 52 61 28 33 1016.0 - -
28/12:15pm 24.8 - - - - SE 52 - 28 - - 1015.9 -
28/12:00pm 24.8 - - - - SSE 52 61 28 33 1016.4 - -
28/11:30am 24.9 - - - - SSE 54 61 29 33 1016.8 - -
28/11:15am 25.0 - - - - SSE 50 - 27 - - 1016.6 -
28/11:00am 24.8 - - - - SSE 54 63 29 34 1016.9 - -
28/10:30am 25.0 - - - - SSE 54 61 29 33 1016.9 - -
28/10:15am 24.9 - - - - SSE 54 - 29 - - 1016.6 -
28/10:00am 25.0 - - - - SSE 52 61 28 33 1017.0 - -
28/09:30am 25.0 - - - - SSE 50 59 27 32 1017.5 - -
28/09:15am 24.9 - - - - SSE 52 - 28 - - 1017.0 -
28/09:00am 24.9 - - - - SSE 52 59 28 32 1017.4 - -
28/08:30am 24.9 - - - - SSE 50 57 27 31 1017.2 - -
28/08:15am 24.9 - - - - SSE 52 - 28 - - 1016.7 -
28/08:00am 24.9 - - - - SSE 50 59 27 32 1016.9 - -
28/07:30am 24.8 - - - - SSE 54 61 29 33 1016.5 - -
28/07:15am 24.8 - - - - SSE 52 - 28 - - 1016.1 -
28/07:00am 25.0 - - - - SSE 50 59 27 32 1016.4 - -
28/06:30am 24.9 - - - - SSE 48 56 26 30 1016.1 - -
28/06:15am 24.9 - - - - SSE 50 - 27 - - 1015.6 -
28/06:00am 24.9 - - - - SSE 50 59 27 32 1015.7 - -
28/05:30am 24.9 - - - - SSE 50 57 27 31 1015.4 - -
28/05:15am 24.8 - - - - SSE 48 - 26 - - 1014.9 -
28/05:00am 24.9 - - - - SSE 50 57 27 31 1015.3 - -
28/04:30am 24.8 - - - - SSE 50 57 27 31 1015.1 - -
28/04:15am 24.7 - - - - SSE 48 - 26 - - 1014.8 -
28/04:00am 24.4 - - - - SSE 50 56 27 30 1015.1 - -
28/03:30am 23.7 - - - - SE 43 56 23 30 1015.3 - -
28/03:15am 23.7 - - - - SE 39 - 21 - - 1014.8 -
28/03:00am 24.8 - - - - SE 44 52 24 28 1015.2 - -
28/02:30am 25.3 - - - - SE 43 48 23 26 1015.3 - -
28/02:15am 25.2 - - - - SSE 43 - 23 - - 1015.1 -
28/02:00am 25.5 - - - - SE 43 50 23 27 1015.5 - -
28/01:30am 25.4 - - - - SSE 44 50 24 27 1015.8 - -
28/01:15am 25.5 - - - - SE 43 - 23 - - 1015.5 -
28/01:00am 25.5 - - - - SE 41 46 22 25 1015.9 - -
28/12:30am 25.5 - - - - SE 41 44 22 24 1016.2 - -
28/12:15am 25.5 - - - - SE 37 - 20 - - 1016.0 -
28/12:00am 25.4 - - - - SE 41 44 22 24 1016.3 - -
 
Date/Time
EST
Temp
°C
App
Temp
°C
Dew
Point
°C
Rel
Hum
%
Delta-T
°C
Wind Press
QNH
hPa
Press
MSL
hPa
Rain since
9am
mm
Dir  Spd
km/h
Gust
km/h
Spd
kts
Gust
kts
27/11:30pm 25.3 - - - - SE 37 43 20 23 1016.4 - -
27/11:15pm 25.5 - - - - SE 37 - 20 - - 1016.3 -
27/11:00pm 25.4 - - - - SE 39 43 21 23 1016.5 - -
27/10:30pm 25.5 - - - - SE 37 43 20 23 1016.5 - -
27/10:15pm 25.4 - - - - SE 37 - 20 - - 1016.2 -
27/10:00pm 25.5 - - - - SE 37 41 20 22 1016.5 - -
27/09:30pm 25.5 - - - - SE 37 43 20 23 1016.5 - -
27/09:15pm 25.4 - - - - SE 37 - 20 - - 1016.3 -
27/09:00pm 25.4 - - - - SE 35 41 19 22 1016.5 - -
27/08:30pm 25.3 - - - - SSE 37 43 20 23 1016.6 - -
27/08:15pm 25.2 - - - - SSE 37 - 20 - - 1016.0 -
27/08:00pm 25.3 - - - - SSE 39 43 21 23 1016.0 - -
27/07:30pm 25.3 - - - - SSE 43 48 23 26 1015.7 - -
27/07:15pm 25.3 - - - - SSE 41 - 22 - - 1015.2 -
27/07:00pm 25.5 - - - - SSE 41 46 22 25 1015.3 - -
27/06:30pm 25.3 - - - - SSE 37 43 20 23 1015.3 - -
27/06:15pm 25.3 - - - - SSE 41 - 22 - - 1014.8 -
27/06:00pm 25.1 - - - - SSE 39 43 21 23 1015.0 - -
27/05:30pm 24.9 - - - - SSE 33 39 18 21 1014.8 - -
27/05:15pm 24.6 - - - - SSE 35 - 19 - - 1014.3 -
27/05:00pm 23.9 - - - - SSE 39 44 21 24 1014.5 - -
27/04:30pm 23.3 - - - - SSE 37 44 20 24 1014.4 - -
27/04:15pm 23.0 - - - - SSE 39 - 21 - - 1014.0 -
27/04:00pm 23.9 - - - - SE 41 48 22 26 1014.0 - -
27/03:30pm 25.1 - - - - SE 39 46 21 25 1013.6 - -
27/03:15pm 25.1 - - - - SSE 37 - 20 - - 1013.1 -
27/03:00pm 25.1 - - - - SSE 37 43 20 23 1013.4 - -
27/02:30pm 25.1 - - - - SE 35 39 19 21 1013.6 - -
27/02:15pm 25.2 - - - - SSE 33 - 18 - - 1013.3 -
27/02:00pm 25.0 - - - - SSE 35 41 19 22 1013.7 - -
27/01:30pm 25.3 - - - - SE 35 41 19 22 1013.8 - -
27/01:15pm 25.3 - - - - SE 35 - 19 - - 1013.6 -
27/01:00pm 25.2 - - - - SE 35 39 19 21 1014.1 - -
27/12:30pm 25.4 - - - - SE 35 39 19 21 1014.5 - -
27/12:15pm 25.3 - - - - SE 35 - 19 - - 1014.3 -
27/12:00pm 25.4 - - - - SE 35 41 19 22 1014.9 - -
27/11:30am 25.4 - - - - SE 37 43 20 23 1015.0 - -
27/11:15am 25.4 - - - - SE 39 - 21 - - 1014.6 -
27/11:00am 25.3 - - - - SE 39 43 21 23 1015.2 - -
27/10:30am 25.5 - - - - SE 39 43 21 23 1015.5 - -
27/10:15am 25.4 - - - - SE 37 - 20 - - 1015.2 -
27/10:00am 25.3 - - - - SE 37 43 20 23 1015.7 - -
27/09:30am 25.4 - - - - SE 37 43 20 23 1015.8 - -
27/09:15am 25.3 - - - - SE 37 - 20 - - 1015.4 -
27/09:00am 25.2 - - - - SE 35 41 19 22 1015.5 - -
27/08:30am 25.2 - - - - SE 37 43 20 23 1015.1 - -
27/08:15am 25.1 - - - - SE 39 - 21 - - 1014.7 -
27/08:00am 25.1 - - - - SE 39 44 21 24 1015.1 - -
27/07:30am 25.3 - - - - SE 39 44 21 24 1014.8 - -
27/07:15am 25.1 - - - - SE 39 - 21 - - 1014.4 -
27/07:00am 24.9 - - - - SE 41 46 22 25 1014.5 - -
27/06:30am 24.9 - - - - SE 37 43 20 23 1014.2 - -
27/06:15am 24.9 - - - - SE 39 - 21 - - 1013.8 -
27/06:00am 24.9 - - - - SE 39 43 21 23 1014.1 - -
27/05:30am 24.8 - - - - SE 35 41 19 22 1014.0 - -
27/05:15am 24.9 - - - - ESE 33 - 18 - - 1013.6 -
27/05:00am 24.9 - - - - SE 37 43 20 23 1013.8 - -
27/04:30am 24.6 - - - - ESE 41 46 22 25 1013.5 - -
27/04:15am 24.4 - - - - ESE 43 - 23 - - 1013.3 -
27/04:00am 24.6 - - - - ESE 37 43 20 23 1013.8 - -
27/03:30am 25.1 - - - - SE 33 39 18 21 1013.7 - -
27/03:15am 24.9 - - - - SE 35 - 19 - - 1013.5 -
27/03:13am 24.9 - - - - SE 33 43 18 23 1013.9 - -
27/03:00am 24.1 - - - - S 37 44 20 24 1014.0 - -
27/02:30am 24.1 - - - - SSE 37 41 20 22 1014.0 - -
27/02:15am 24.7 - - - - SSE 35 - 19 - - 1013.8 -
27/02:00am 24.9 - - - - SSE 35 43 19 23 1014.1 - -
27/01:30am 24.9 - - - - SE 33 39 18 21 1014.4 - -
27/01:15am 24.2 - - - - SE 32 - 17 - - 1014.2 -
27/01:00am 24.8 - - - - ESE 35 41 19 22 1014.6 - -
27/12:30am 24.6 - - - - ESE 33 41 18 22 1014.9 - -
27/12:15am 24.6 - - - - SE 32 - 17 - - 1014.7 -
27/12:00am 24.0 - - - - ESE 33 39 18 21 1015.0 - -
 
Date/Time
EST
Temp
°C
App
Temp
°C
Dew
Point
°C
Rel
Hum
%
Delta-T
°C
Wind Press
QNH
hPa
Press
MSL
hPa
Rain since
9am
mm
Dir  Spd
km/h
Gust
km/h
Spd
kts
Gust
kts
26/11:30pm 23.8 - - - - SSE 32 37 17 20 1014.9 - -
26/11:15pm 23.6 - - - - SSE 32 - 17 - - 1014.8 -
26/11:00pm 23.7 - - - - SSE 33 37 18 20 1015.1 - -
26/10:30pm 24.0 - - - - SSE 33 37 18 20 1015.2 - -
26/10:15pm 24.2 - - - - SSE 33 - 18 - - 1014.8 -
26/10:00pm 24.3 - - - - SE 32 37 17 20 1015.1 - -
26/09:30pm 24.2 - - - - SE 32 35 17 19 1015.0 - -
26/09:15pm 24.7 - - - - SSE 33 - 18 - - 1014.5 -
26/09:00pm 24.7 - - - - SSE 33 35 18 19 1014.8 - -
26/08:30pm 25.0 - - - - SE 32 37 17 20 1014.8 - -
26/08:15pm 24.7 - - - - SE 32 - 17 - - 1014.3 -
26/08:00pm 24.9 - - - - SE 33 37 18 20 1014.4 - -
26/07:30pm 25.3 - - - - SE 30 33 16 18 1014.2 - -
26/07:15pm 25.4 - - - - SE 30 - 16 - - 1013.8 -
26/07:00pm 25.3 - - - - SE 28 32 15 17 1014.0 - -
26/06:30pm 25.3 - - - - SE 28 32 15 17 1013.7 - -
26/06:15pm 25.3 - - - - SE 28 - 15 - - 1013.2 -
26/06:00pm 25.3 - - - - SE 28 32 15 17 1013.3 - -
26/05:30pm 25.2 - - - - SE 28 32 15 17 1013.0 - -
26/05:15pm 25.2 - - - - SE 28 - 15 - - 1012.7 -
26/05:00pm 25.4 - - - - SE 28 32 15 17 1013.0 - -
26/04:30pm 25.3 - - - - SE 30 35 16 19 1012.5 - -
26/04:15pm 25.3 - - - - SE 30 - 16 - - 1012.1 -
26/04:00pm 25.3 - - - - SE 28 33 15 18 1012.4 - -
26/03:30pm 25.2 - - - - SE 32 35 17 19 1012.4 - -
26/03:15pm 25.5 - - - - SE 30 - 16 - - 1012.2 -
26/03:00pm 25.4 - - - - ESE 30 35 16 19 1012.6 - -
26/02:30pm 25.5 - - - - SE 30 32 16 17 1012.9 - -
26/02:15pm 25.4 - - - - SE 30 - 16 - - 1012.6 -
26/02:00pm 25.4 - - - - SE 30 33 16 18 1013.1 - -
26/01:30pm 25.3 - - - - SE 28 33 15 18 1013.4 - -
26/01:15pm 25.2 - - - - ESE 32 - 17 - - 1013.3 -
26/01:00pm 25.4 - - - - ESE 30 35 16 19 1013.8 - -
26/12:30pm 25.3 - - - - ESE 30 35 16 19 1014.1 - -
26/12:15pm 25.3 - - - - ESE 30 - 16 - - 1013.9 -
26/12:00pm 25.2 - - - - ESE 30 35 16 19 1014.4 - -
26/11:30am 25.2 - - - - ESE 32 37 17 20 1014.8 - -
26/11:15am 25.4 - - - - ESE 30 - 16 - - 1014.7 -
26/11:00am 25.2 - - - - ESE 30 33 16 18 1015.1 - -
26/10:30am 25.3 - - - - ESE 30 35 16 19 1015.4 - -
26/10:15am 25.2 - - - - ESE 32 - 17 - - 1015.2 -
26/10:00am 25.3 - - - - ESE 33 37 18 20 1015.5 - -
26/09:30am 25.2 - - - - ESE 33 39 18 21 1015.6 - -
26/09:15am 25.3 - - - - ESE 35 - 19 - - 1015.2 -
26/09:00am 25.1 - - - - ESE 35 41 19 22 1015.4 - -
26/08:30am 25.2 - - - - ESE 35 41 19 22 1015.3 - -
26/08:15am 25.2 - - - - ESE 37 - 20 - - 1014.9 -
26/08:00am 25.1 - - - - ESE 37 43 20 23 1015.1 - -
26/07:30am 25.1 - - - - ESE 33 39 18 21 1014.8 - -
26/07:15am 25.1 - - - - ESE 37 - 20 - - 1014.3 -
26/07:00am 25.0 - - - - ESE 35 41 19 22 1014.5 - -
26/06:30am 25.1 - - - - ESE 35 41 19 22 1014.4 - -
26/06:15am 24.9 - - - - SE 35 - 19 - - 1013.9 -
26/06:00am 25.0 - - - - SE 35 39 19 21 1014.1 - -
26/05:30am 24.9 - - - - ESE 37 43 20 23 1014.0 - -
26/05:15am 24.9 - - - - ESE 39 - 21 - - 1013.4 -
26/05:00am 25.0 - - - - SE 39 44 21 24 1013.6 - -
26/04:30am 25.0 - - - - ESE 37 43 20 23 1013.5 - -
26/04:15am 25.1 - - - - ESE 37 - 20 - - 1013.3 -
26/04:00am 25.0 - - - - ESE 37 43 20 23 1013.5 - -
26/03:30am 25.0 - - - - SE 37 43 20 23 1013.5 - -
26/03:15am 25.1 - - - - SE 37 - 20 - - 1013.3 -
26/03:00am 25.0 - - - - SE 39 44 21 24 1013.7 - -
26/02:30am 25.2 - - - - SE 39 44 21 24 1014.0 - -
26/02:15am 25.1 - - - - SE 35 - 19 - - 1013.8 -
26/02:00am 25.0 - - - - SE 35 43 19 23 1014.2 - -
26/01:30am 25.1 - - - - SE 35 41 19 22 1014.4 - -
26/01:15am 25.0 - - - - SE 35 - 19 - - 1014.2 -
26/01:00am 25.1 - - - - SE 37 43 20 23 1014.6 - -
26/12:30am 25.1 - - - - SE 35 41 19 22 1014.7 - -
26/12:15am 25.2 - - - - SE 35 - 19 - - 1014.5 -
26/12:00am 25.2 - - - - SE 37 41 20 22 1014.9 - -
 
Date/Time
EST
Temp
°C
App
Temp
°C
Dew
Point
°C
Rel
Hum
%
Delta-T
°C
Wind Press
QNH
hPa
Press
MSL
hPa
Rain since
9am
mm
Dir  Spd
km/h
Gust
km/h
Spd
kts
Gust
kts
25/11:30pm 25.1 - - - - SE 32 37 17 20 1015.1 - -
25/11:15pm 25.1 - - - - SE 35 - 19 - - 1014.8 -
25/11:00pm 25.2 - - - - SE 33 37 18 20 1015.1 - -
25/10:30pm 25.2 - - - - SE 32 37 17 20 1015.2 - -
25/10:15pm 25.2 - - - - SE 32 - 17 - - 1014.9 -
25/10:00pm 25.2 - - - - SE 32 37 17 20 1015.2 - -
25/09:30pm 25.1 - - - - SE 32 37 17 20 1015.0 - -
25/09:15pm 25.1 - - - - SE 33 - 18 - - 1014.8 -
25/09:00pm 25.2 - - - - SE 33 37 18 20 1015.0 - -
25/08:30pm 25.2 - - - - SE 32 37 17 20 1014.7 - -
25/08:15pm 25.2 - - - - SE 32 - 17 - - 1014.1 -
25/08:00pm 25.1 - - - - SE 30 35 16 19 1014.3 - -
25/07:30pm 25.2 - - - - SE 30 33 16 18 1014.3 - -
25/07:15pm 25.1 - - - - SE 32 - 17 - - 1013.9 -
25/07:00pm 25.2 - - - - SE 32 35 17 19 1014.0 - -
25/06:30pm 25.2 - - - - SE 30 33 16 18 1013.6 - -
25/06:15pm 25.1 - - - - SE 26 - 14 - - 1013.2 -
25/06:00pm 25.2 - - - - SE 26 30 14 16 1013.4 - -
25/05:30pm 25.3 - - - - SE 28 33 15 18 1013.4 - -
25/05:15pm 25.4 - - - - SE 28 - 15 - - 1013.2 -
25/05:00pm 25.3 - - - - SE 26 32 14 17 1013.4 - -
25/04:30pm 25.6 - - - - SE 26 32 14 17 1013.3 - -
25/04:15pm 25.5 - - - - SSE 28 - 15 - - 1012.9 -
25/04:00pm 25.4 - - - - SE 30 35 16 19 1013.0 - -
25/03:30pm 25.5 - - - - SE 28 32 15 17 1013.2 - -
25/03:15pm 25.3 - - - - SSE 30 - 16 - - 1012.9 -
25/03:00pm 25.5 - - - - SSE 30 35 16 19 1013.3 - -

Other Formats:

Comma delimited format used in spreadsheet applications
http://www.bom.gov.au/fwo/IDQ60801/IDQ60801.94289.axf

JavaScript Object Notation format (JSON) in row-major order
http://www.bom.gov.au/fwo/IDQ60801/IDQ60801.94289.json